Aeroporto :
LOGIN :

Iscrizione | Disclaimer

   EN    FR    IT 

 










Sommario :    VFR   VFR Marginale   IFR   IFR Intensivo   IFR Molto Intensivo
Visibilità : 
Base nubi : 
>= 8 km
>= 3000ft
5 / 8 km
1000 / 3000 ft
1500m / 5 km
500 / 1000 ft
800 / 1500m
200 / 500 ft
< 800m
< 200 ft
Simboli :   Temporali  Nebbia  Neve Forte  Precipitazioni Forti  Vento > 20 kt
SIGMETs :   Varie  Temporali  Ghiacco  Turbolenza  Onda orograficha  Ceneri Vulcaniche






- Altitudine del aeroporto : 399 ft
- Codice IATA : KIV


LUKK - Chisinau Int.

ULTIMO METAR :
  • 221300Z 33014KT CAVOK 13/M07 Q1017 R26/D TEMPO 34022G32KT

METARs OBSOLETI :
  • 221230Z 33016G26KT CAVOK 13/M07 Q1017 R26/CLRD// TEMPO 34022G32KT
  • 221200Z 31015KT CAVOK 13/M04 Q1017 R26/CLRD// TEMPO 34022G32KT
  • 221130Z 30017KT CAVOK 12/M03 Q1018 R26/D TEMPO 34022G32KT
  • 221100Z 30016KT CAVOK 11/M03 Q1018 R26/CLRD// TEMPO 30018G28KT

TAF TAF LUKK
Valido dal 22 a 12 ore il 23 a 12 ore UTC


221120Z 2212/2312 31018KT CAVOK
TEMPO 2212/2220 34022G32KT
TEMPO 2220/2301 34026G36KT 5000 SHSNRA BKN015 SCT020CB
TEMPO 2301/2312 35026G36KT



MetMap, La meteo Aeronautica in un colpo d'occhio ! - Copyright ORBIFLY Dicembre 2007 - Disclaimer

ORBIFLY MET'MAP TEAM :

Programmazione e sviluppo : Alexandra Zaïnal
Concezione : Baudouin d'Aumeries
Aiuto per la programmazione : Marc-Olivier Méhu
Supporto tecnico e logistico : Manuel Goepfert
Aiuto per la traduzione : Arnaldo La Scala

Contatto : metmap@orbifly.com




FONTI E CREDITI :

   NOAA